Time;durP1;ratioP1;P1;durP2;ratioP2;P2;SDS_P1;SDS_P2;PMS_P1;PMS_P2;Temp;Humidity;BMP_temperature;BMP_pressure;BME280_temperature;BME280_humidity;BME280_pressure;Samples;Min_cycle;Max_cycle;Signal;HPM_P1;HPM_P2
2023/04/24 00:00:05;;;;;;;0.10;0.10;;;;;;;11.74;98.74;98982.25;5017780;28;20169;-84
2023/04/24 00:02:32;;;;;;;0.00;0.00;;;;;;;11.67;98.89;98973.06;5018140;28;20299;-84
2023/04/24 00:05:02;;;;;;;0.00;0.00;;;;;;;11.68;99.59;98969.97;5018872;28;20193;-85
2023/04/24 00:07:27;;;;;;;0.30;0.20;;;;;;;11.67;99.63;98973.84;5018352;28;20146;-84
2023/04/24 00:09:53;;;;;;;0.00;0.00;;;;;;;11.67;99.05;98970.31;5018908;28;20157;-84
2023/04/24 00:12:18;;;;;;;0.10;0.10;;;;;;;11.63;99.54;98962.03;5019250;28;20157;-84
2023/04/24 00:14:43;;;;;;;0.43;0.33;;;;;;;11.65;99.56;98967.16;5013689;28;20714;-83
2023/04/24 00:17:08;;;;;;;0.87;0.40;;;;;;;11.62;99.65;98954.97;5002192;28;20176;-81
2023/04/24 00:19:34;;;;;;;0.10;0.10;;;;;;;11.60;99.93;98957.28;5002501;28;20182;-84
2023/04/24 00:21:59;;;;;;;0.17;0.10;;;;;;;11.53;100.00;98951.63;4998896;28;20215;-85
2023/04/24 00:24:24;;;;;;;0.10;0.10;;;;;;;11.56;100.00;98956.38;4997608;28;20229;-84
2023/04/24 00:26:50;;;;;;;0.17;0.17;;;;;;;11.59;100.00;98952.97;4995423;28;20181;-84
2023/04/24 00:29:15;;;;;;;0.00;0.00;;;;;;;11.55;100.00;98954.78;4995414;28;20181;-84
2023/04/24 00:31:40;;;;;;;0.23;0.23;;;;;;;11.55;100.00;98958.31;4995367;28;20165;-83
2023/04/24 00:34:06;;;;;;;0.10;0.10;;;;;;;11.59;100.00;98966.63;4995664;28;20173;-84
2023/04/24 00:36:32;;;;;;;0.10;0.10;;;;;;;11.59;99.99;98967.44;4998072;28;20745;-84
2023/04/24 00:38:57;;;;;;;0.00;0.00;;;;;;;11.50;100.00;98964.06;4997763;28;20176;-84
2023/04/24 00:41:25;;;;;;;0.20;0.20;;;;;;;11.48;100.00;98965.56;4997593;28;20207;-83
2023/04/24 00:43:51;;;;;;;0.10;0.10;;;;;;;11.46;100.00;98974.13;4995182;28;20177;-82
2023/04/24 00:46:16;;;;;;;0.07;0.07;;;;;;;11.49;100.00;98973.44;4997200;28;20173;-84
2023/04/24 00:48:42;;;;;;;0.57;0.37;;;;;;;11.47;100.00;98977.66;4996297;28;20179;-84
2023/04/24 00:51:08;;;;;;;0.20;0.20;;;;;;;11.43;100.00;98983.06;4997581;28;20184;-84
2023/04/24 00:53:33;;;;;;;0.40;0.40;;;;;;;11.42;100.00;98977.91;4995035;28;20209;-82
2023/04/24 00:55:59;;;;;;;0.20;0.20;;;;;;;11.41;100.00;98970.84;4995251;28;20239;-84
2023/04/24 00:58:26;;;;;;;0.30;0.30;;;;;;;11.36;100.00;98977.38;4995700;28;20189;-83
2023/04/24 01:00:53;;;;;;;0.60;0.60;;;;;;;11.38;100.00;98972.34;4995836;28;20237;-83
2023/04/24 01:03:21;;;;;;;1.80;0.67;;;;;;;11.35;100.00;98964.88;4996296;28;20193;-84
2023/04/24 01:05:47;;;;;;;0.20;0.20;;;;;;;11.29;100.00;98956.16;4996287;28;20212;-83
2023/04/24 01:08:13;;;;;;;0.20;0.20;;;;;;;11.29;100.00;98952.63;4995570;28;20177;-83
2023/04/24 01:10:41;;;;;;;0.87;0.57;;;;;;;11.29;100.00;98947.94;4997222;28;20255;-84
2023/04/24 01:13:08;;;;;;;0.20;0.20;;;;;;;11.32;100.00;98944.50;4995313;28;20640;-83
2023/04/24 01:15:34;;;;;;;0.20;0.20;;;;;;;11.30;100.00;98944.06;4994892;28;20619;-83
2023/04/24 01:17:59;;;;;;;1.87;0.27;;;;;;;11.26;100.00;98934.16;4995981;28;20193;-83
2023/04/24 01:20:25;;;;;;;0.00;0.00;;;;;;;11.23;100.00;98949.34;4995912;28;20187;-83
2023/04/24 01:22:51;;;;;;;0.37;0.37;;;;;;;11.25;100.00;98954.44;4993834;28;20259;-83
2023/04/24 01:25:16;;;;;;;0.10;0.10;;;;;;;11.23;100.00;98954.81;4995371;28;20197;-84
2023/04/24 01:27:42;;;;;;;0.00;0.00;;;;;;;11.21;100.00;98948.91;4994743;28;20550;-84
2023/04/24 01:30:08;;;;;;;0.00;0.00;;;;;;;11.17;100.00;98958.97;4996463;28;20197;-83
2023/04/24 01:32:33;;;;;;;0.00;0.00;;;;;;;11.21;100.00;98959.03;4996177;28;20184;-84
2023/04/24 01:34:59;;;;;;;0.47;0.40;;;;;;;11.21;100.00;98959.84;4995938;28;20193;-83
2023/04/24 01:37:24;;;;;;;0.00;0.00;;;;;;;11.23;100.00;98960.28;4995271;28;20181;-84
2023/04/24 01:39:49;;;;;;;0.10;0.10;;;;;;;11.25;100.00;98954.44;4994369;28;20188;-82
2023/04/24 01:42:16;;;;;;;0.70;0.50;;;;;;;11.28;100.00;98948.28;4999870;28;20241;-83
2023/04/24 01:44:41;;;;;;;0.07;0.07;;;;;;;11.20;100.00;98955.50;5003399;28;20193;-84
2023/04/24 01:47:07;;;;;;;0.00;0.00;;;;;;;11.15;100.00;98953.06;5000734;28;20220;-85
2023/04/24 01:49:32;;;;;;;0.23;0.23;;;;;;;11.16;100.00;98954.63;4999175;28;20169;-84
2023/04/24 01:51:58;;;;;;;0.20;0.20;;;;;;;11.14;100.00;98951.47;4999344;28;20177;-84
2023/04/24 01:54:23;;;;;;;0.00;0.00;;;;;;;11.15;100.00;98955.78;4997572;28;20193;-83
2023/04/24 01:56:48;;;;;;;0.37;0.37;;;;;;;11.07;100.00;98951.25;4999023;28;20173;-83
2023/04/24 01:59:16;;;;;;;0.13;0.13;;;;;;;11.03;100.00;98944.91;4997203;28;20270;-83
2023/04/24 02:01:42;;;;;;;0.00;0.00;;;;;;;10.99;100.00;98938.53;4997024;28;20293;-83
2023/04/24 02:04:07;;;;;;;0.20;0.20;;;;;;;10.91;100.00;98936.78;4998889;28;20201;-82
2023/04/24 02:06:33;;;;;;;0.20;0.20;;;;;;;10.85;99.32;98938.19;4999495;28;20178;-83
2023/04/24 02:08:59;;;;;;;0.10;0.10;;;;;;;10.89;98.74;98933.63;4997624;28;20169;-83
2023/04/24 02:11:24;;;;;;;0.13;0.13;;;;;;;10.86;97.80;98934.31;4996788;28;20224;-83
2023/04/24 02:13:51;;;;;;;0.73;0.50;;;;;;;10.90;97.14;98936.00;4996887;28;20177;-84
2023/04/24 02:16:17;;;;;;;0.10;0.10;;;;;;;10.87;96.96;98933.97;4996896;28;20169;-83
2023/04/24 02:18:42;;;;;;;1.03;0.93;;;;;;;10.90;96.37;98940.66;4999061;28;20174;-83
2023/04/24 02:21:07;;;;;;;0.07;0.07;;;;;;;10.86;95.93;98934.31;4997250;28;20187;-82
2023/04/24 02:23:35;;;;;;;8.83;1.20;;;;;;;10.76;96.44;98926.63;4998587;28;20169;-83
2023/04/24 02:26:00;;;;;;;0.10;0.10;;;;;;;10.78;96.92;98940.72;4997197;28;20667;-83
2023/04/24 02:28:26;;;;;;;0.00;0.00;;;;;;;10.70;97.32;98946.03;4997133;28;20177;-83
2023/04/24 02:30:51;;;;;;;0.00;0.00;;;;;;;10.63;97.57;98936.81;4996893;28;20316;-83
2023/04/24 02:33:19;;;;;;;0.53;0.30;;;;;;;10.70;98.03;98943.28;4998110;28;20165;-84
2023/04/24 02:35:45;;;;;;;0.00;0.00;;;;;;;10.70;98.12;98939.72;4997241;28;20205;-84
2023/04/24 02:38:10;;;;;;;0.00;0.00;;;;;;;10.63;99.13;98942.28;4997151;28;20177;-83
2023/04/24 02:40:35;;;;;;;0.37;0.37;;;;;;;10.64;99.80;98949.34;4997299;28;20173;-84
2023/04/24 02:43:04;;;;;;;0.00;0.00;;;;;;;10.64;99.93;98944.66;4997176;28;20251;-83
2023/04/24 02:45:29;;;;;;;0.00;0.00;;;;;;;10.62;100.00;98943.44;4997044;28;20201;-84
2023/04/24 02:47:55;;;;;;;0.17;0.17;;;;;;;10.54;100.00;98928.78;4996725;28;20212;-83
2023/04/24 02:50:20;;;;;;;0.00;0.00;;;;;;;10.50;100.00;98933.34;4995588;28;20184;-83
2023/04/24 02:52:45;;;;;;;0.10;0.10;;;;;;;10.43;100.00;98930.44;4995883;28;20169;-83
2023/04/24 02:55:11;;;;;;;0.30;0.30;;;;;;;10.37;99.70;98926.34;4996331;28;20656;-84
2023/04/24 02:57:36;;;;;;;0.57;0.57;;;;;;;10.36;99.46;98925.56;4995788;28;20240;-83
2023/04/24 03:00:02;;;;;;;0.00;0.00;;;;;;;10.34;99.16;98932.50;4997198;28;20265;-84
2023/04/24 03:02:28;;;;;;;0.00;0.00;;;;;;;10.31;98.23;98920.34;4997332;28;20284;-83
2023/04/24 03:04:53;;;;;;;0.33;0.33;;;;;;;10.29;98.37;98936.28;5019283;23;20224;-86
2023/04/24 03:07:20;;;;;;;0.00;0.00;;;;;;;10.33;98.03;98930.91;4993257;28;20718;-86
2023/04/24 03:09:46;;;;;;;0.20;0.10;;;;;;;10.26;98.42;98925.25;4993663;28;20181;-86
2023/04/24 03:12:11;;;;;;;0.20;0.20;;;;;;;10.19;98.15;98923.09;4994015;28;20169;-86
2023/04/24 03:14:36;;;;;;;0.00;0.00;;;;;;;10.19;97.94;98916.81;4994692;28;20263;-86
2023/04/24 03:17:02;;;;;;;0.10;0.10;;;;;;;10.20;97.15;98918.41;4993586;28;20188;-85
2023/04/24 03:19:27;;;;;;;0.20;0.20;;;;;;;10.14;97.50;98915.16;4993520;28;20184;-86
2023/04/24 03:21:55;;;;;;;0.00;0.00;;;;;;;10.16;97.09;98917.53;4993629;28;20236;-86
2023/04/24 03:24:21;;;;;;;4.80;0.43;;;;;;;10.11;96.52;98913.88;4993569;28;20192;-86
2023/04/24 03:26:46;;;;;;;0.37;0.33;;;;;;;10.09;96.35;98918.09;4994719;28;20276;-86
2023/04/24 03:29:12;;;;;;;0.00;0.00;;;;;;;10.05;96.05;98907.09;4994581;28;20173;-86
2023/04/24 03:31:37;;;;;;;0.00;0.00;;;;;;;10.03;96.00;98916.75;4993480;28;20533;-86
2023/04/24 03:34:02;;;;;;;0.33;0.33;;;;;;;9.98;95.90;98916.97;4994307;28;20177;-85
2023/04/24 03:36:28;;;;;;;0.10;0.10;;;;;;;9.95;95.80;98915.75;4993230;28;20203;-86
2023/04/24 03:38:55;;;;;;;0.00;0.00;;;;;;;9.94;95.79;98916.88;4994677;28;20178;-86
2023/04/24 03:41:22;;;;;;;0.00;0.00;;;;;;;9.92;96.61;98912.91;4993277;28;20260;-86
2023/04/24 03:43:50;;;;;;;0.00;0.00;;;;;;;9.90;96.41;98907.00;4993159;28;20280;-85
2023/04/24 03:46:18;;;;;;;0.20;0.20;;;;;;;9.92;96.02;98912.91;4993054;28;20197;-86
2023/04/24 03:48:46;;;;;;;0.00;0.00;;;;;;;9.84;95.19;98912.72;4993580;28;20181;-86
2023/04/24 03:51:11;;;;;;;0.00;0.00;;;;;;;9.86;95.75;98909.66;4994452;28;20617;-86
2023/04/24 03:53:46;;;;;;;0.00;0.00;;;;;;;9.91;96.03;98912.13;4992966;28;20268;-87
2023/04/24 03:56:11;;;;;;;0.00;0.00;;;;;;;9.90;96.23;98915.19;4993009;28;20192;-87
2023/04/24 03:58:37;;;;;;;0.00;0.00;;;;;;;9.90;96.04;98921.44;4992949;28;20276;-86
2023/04/24 04:01:02;;;;;;;0.00;0.00;;;;;;;9.81;96.01;98909.88;4992555;28;20372;-86
2023/04/24 04:03:31;;;;;;;0.00;0.00;;;;;;;9.82;96.25;98914.19;4992169;28;20197;-86
2023/04/24 04:05:56;;;;;;;0.00;0.00;;;;;;;9.68;96.85;98916.47;4992010;28;20208;-86
2023/04/24 04:08:21;;;;;;;0.00;0.00;;;;;;;9.66;97.37;98910.56;4992640;28;20280;-86
2023/04/24 04:10:47;;;;;;;0.00;0.00;;;;;;;9.68;97.05;98909.09;4993879;28;20185;-85
2023/04/24 04:13:18;;;;;;;0.00;0.00;;;;;;;9.74;97.19;98915.13;4992456;28;20259;-85
2023/04/24 04:15:43;;;;;;;20.23;0.30;;;;;;;9.75;96.86;98913.97;4992555;28;20201;-86
2023/04/24 04:18:09;;;;;;;0.00;0.00;;;;;;;9.70;97.14;98920.47;4992494;28;20271;-86
2023/04/24 04:20:34;;;;;;;0.00;0.00;;;;;;;9.71;96.99;98916.59;4992314;28;20706;-86
2023/04/24 04:23:00;;;;;;;0.00;0.00;;;;;;;9.70;97.73;98908.75;4992574;28;20201;-86
2023/04/24 04:25:25;;;;;;;0.00;0.00;;;;;;;9.70;97.97;98915.00;4993381;28;20251;-86
2023/04/24 04:27:52;;;;;;;0.00;0.00;;;;;;;9.68;98.30;98905.56;4992729;28;20188;-86
2023/04/24 04:30:17;;;;;;;0.00;0.00;;;;;;;9.62;98.55;98899.56;4993953;28;20177;-86
2023/04/24 04:32:43;;;;;;;0.00;0.00;;;;;;;9.62;98.95;98910.47;4993498;28;20231;-85
2023/04/24 04:35:09;;;;;;;0.00;0.00;;;;;;;9.73;99.41;98916.25;4992418;28;20277;-86
2023/04/24 04:37:38;;;;;;;0.00;0.00;;;;;;;9.82;98.64;98925.09;4992459;28;20639;-85
2023/04/24 04:40:06;;;;;;;0.10;0.10;;;;;;;9.89;98.38;98921.78;4992430;28;20177;-86
2023/04/24 04:42:33;;;;;;;0.00;0.00;;;;;;;9.94;98.34;98930.53;4993376;28;20226;-86
2023/04/24 04:45:02;;;;;;;0.00;0.00;;;;;;;9.97;99.10;98927.09;4992011;28;20205;-86
2023/04/24 04:47:28;;;;;;;0.00;0.00;;;;;;;10.01;98.89;98927.22;4992196;28;20272;-86
2023/04/24 04:49:56;;;;;;;0.10;0.10;;;;;;;10.10;98.41;98936.06;4993563;28;20739;-86
2023/04/24 04:52:25;;;;;;;0.00;0.00;;;;;;;10.18;98.05;98931.63;4992138;28;20186;-85
2023/04/24 04:54:51;;;;;;;0.00;0.00;;;;;;;10.10;98.78;98928.66;4991967;28;20184;-86
2023/04/24 04:57:16;;;;;;;0.00;0.00;;;;;;;10.19;98.72;98930.47;4992125;28;20189;-86
2023/04/24 04:59:41;;;;;;;0.00;0.00;;;;;;;10.21;98.18;98931.75;4993076;28;20272;-85
2023/04/24 05:02:07;;;;;;;0.00;0.00;;;;;;;10.27;98.22;98929.56;4992001;28;20197;-86
2023/04/24 05:04:32;;;;;;;0.00;0.00;;;;;;;10.32;97.72;98938.31;4993208;28;20247;-86
2023/04/24 05:06:58;;;;;;;0.20;0.20;;;;;;;10.36;97.71;98939.19;4993059;28;20208;-86
2023/04/24 05:09:27;;;;;;;0.37;0.37;;;;;;;10.41;97.66;98930.78;4991962;28;20172;-86
2023/04/24 05:11:52;;;;;;;0.00;0.00;;;;;;;10.46;97.46;98932.47;4991895;28;20264;-86
2023/04/24 05:14:18;;;;;;;0.30;0.30;;;;;;;10.49;97.74;98939.16;4992232;28;20311;-86
2023/04/24 05:16:44;;;;;;;0.00;0.00;;;;;;;10.50;97.71;98941.53;4991632;28;20252;-87
2023/04/24 05:19:10;;;;;;;0.57;0.20;;;;;;;10.51;97.88;98948.59;4992070;28;20181;-86
2023/04/24 05:21:35;;;;;;;0.00;0.00;;;;;;;10.55;97.71;98933.09;4991600;28;20201;-87
2023/04/24 05:24:01;;;;;;;0.00;0.00;;;;;;;10.59;97.45;98944.13;4992744;28;20173;-86
2023/04/24 05:26:26;;;;;;;0.00;0.00;;;;;;;10.60;98.02;98946.50;4991611;28;20667;-86
2023/04/24 05:28:54;;;;;;;0.10;0.10;;;;;;;10.62;97.83;98943.44;4992874;28;20589;-86
2023/04/24 05:31:22;;;;;;;0.00;0.00;;;;;;;10.65;97.73;98946.25;4992794;28;20183;-86
2023/04/24 05:33:48;;;;;;;0.20;0.20;;;;;;;10.61;98.58;98945.38;4993033;28;20173;-87
2023/04/24 05:36:13;;;;;;;0.00;0.00;;;;;;;10.67;98.14;98948.63;4991789;28;20201;-86
2023/04/24 05:38:39;;;;;;;0.00;0.00;;;;;;;10.71;98.81;98955.00;4991699;28;20177;-85
2023/04/24 05:41:09;;;;;;;0.00;0.00;;;;;;;10.68;99.11;98948.28;4991917;28;20228;-86
2023/04/24 05:43:35;;;;;;;0.10;0.10;;;;;;;10.74;98.48;98954.31;4991331;28;20189;-86
2023/04/24 05:46:00;;;;;;;6.03;0.20;;;;;;;10.76;98.23;98941.09;4992806;28;20741;-86
2023/04/24 05:48:25;;;;;;;0.07;0.07;;;;;;;10.75;97.81;98944.16;4991637;28;20655;-87
2023/04/24 05:50:52;;;;;;;0.10;0.10;;;;;;;10.79;98.33;98953.25;4991719;28;20726;-86
2023/04/24 05:53:18;;;;;;;0.00;0.00;;;;;;;10.82;97.54;98956.06;4991588;28;20177;-86
2023/04/24 05:55:43;;;;;;;0.00;0.00;;;;;;;10.89;98.25;98947.28;4991472;28;20698;-86
2023/04/24 05:58:08;;;;;;;0.03;0.03;;;;;;;10.92;97.62;98952.84;4991931;28;20181;-86
2023/04/24 06:00:35;;;;;;;0.20;0.20;;;;;;;10.93;97.96;98948.94;4992193;28;20674;-86
2023/04/24 06:03:03;;;;;;;5.40;1.07;;;;;;;10.95;98.05;98949.41;4990963;28;20981;-85
2023/04/24 06:05:30;;;;;;;0.00;0.00;;;;;;;11.01;98.13;98958.16;4990991;28;20605;-86
2023/04/24 06:07:57;;;;;;;0.10;0.10;;;;;;;11.05;98.39;98950.03;4991576;28;20177;-86
2023/04/24 06:10:23;;;;;;;0.30;0.30;;;;;;;11.06;98.44;98957.09;4991259;28;20195;-86
2023/04/24 06:12:48;;;;;;;0.10;0.10;;;;;;;11.04;98.97;98957.44;4991511;28;20703;-85
2023/04/24 06:15:13;;;;;;;0.13;0.10;;;;;;;11.04;99.05;98957.44;4992156;28;20189;-86
2023/04/24 06:17:39;;;;;;;0.00;0.00;;;;;;;11.03;99.16;98962.13;4991293;28;20593;-86
2023/04/24 06:20:06;;;;;;;0.63;0.40;;;;;;;11.00;99.12;98962.03;4991122;28;20193;-86
2023/04/24 06:22:31;;;;;;;0.03;0.03;;;;;;;11.00;100.00;98983.88;4991194;28;20284;-86
2023/04/24 06:24:59;;;;;;;0.40;0.40;;;;;;;10.58;100.00;98984.31;4990534;28;20890;-87
2023/04/24 06:27:25;;;;;;;0.40;0.40;;;;;;;10.18;100.00;98980.75;4991498;28;20184;-86
2023/04/24 06:29:54;;;;;;;6.77;0.90;;;;;;;9.89;100.00;98988.06;4995948;28;20181;-86
2023/04/24 06:32:23;;;;;;;0.30;0.30;;;;;;;9.79;100.00;98978.41;4994358;28;20203;-86
2023/04/24 06:34:48;;;;;;;0.83;0.83;;;;;;;9.76;100.00;98983.75;4993756;28;20177;-85
2023/04/24 06:37:14;;;;;;;0.43;0.43;;;;;;;9.64;100.00;98981.81;4994407;28;20226;-86
2023/04/24 06:39:39;;;;;;;0.00;0.00;;;;;;;9.64;100.00;98981.81;4995525;28;20176;-86
2023/04/24 06:42:05;;;;;;;0.37;0.33;;;;;;;9.61;100.00;98992.59;4994548;28;20238;-86
2023/04/24 06:44:30;;;;;;;0.60;0.60;;;;;;;9.57;100.00;98994.44;4994075;28;20193;-86
2023/04/24 06:46:55;;;;;;;0.53;0.50;;;;;;;9.62;100.00;98991.47;4994356;28;20197;-86
2023/04/24 06:49:21;;;;;;;0.73;0.60;;;;;;;9.62;100.00;98991.47;4995462;28;20227;-86
2023/04/24 06:51:51;;;;;;;0.20;0.20;;;;;;;9.65;100.00;98990.78;4994408;28;20177;-86
2023/04/24 06:54:17;;;;;;;0.20;0.20;;;;;;;9.69;100.00;99002.59;4993501;28;20185;-86
2023/04/24 06:56:42;;;;;;;0.40;0.40;;;;;;;9.69;100.00;99003.41;4995030;28;20199;-85
2023/04/24 06:59:08;;;;;;;0.63;0.63;;;;;;;9.77;100.00;98996.25;4994999;28;20569;-87
2023/04/24 07:01:33;;;;;;;0.40;0.40;;;;;;;9.84;100.00;98994.56;4994696;28;20738;-86
2023/04/24 07:03:59;;;;;;;1.20;0.90;;;;;;;9.90;100.00;98992.38;4993903;28;20181;-85
2023/04/24 07:06:31;;;;;;;0.30;0.30;;;;;;;9.95;100.00;98983.94;4993042;28;20209;-85
2023/04/24 07:09:00;;;;;;;0.40;0.40;;;;;;;10.04;100.00;98990.09;4994202;28;20173;-86
2023/04/24 07:11:29;;;;;;;0.20;0.20;;;;;;;10.07;100.00;98986.66;4996859;28;20173;-86
2023/04/24 07:14:00;;;;;;;0.80;0.80;;;;;;;10.11;100.00;98992.22;4998503;28;20556;-86
2023/04/24 07:16:28;;;;;;;0.90;0.90;;;;;;;10.16;98.32;98978.34;4998103;28;20196;-86
2023/04/24 07:18:53;;;;;;;2.80;1.77;;;;;;;10.22;97.55;98987.13;4994996;28;20177;-86
2023/04/24 07:21:18;;;;;;;1.27;1.10;;;;;;;10.29;98.22;98992.81;4993678;28;20698;-86
2023/04/24 07:23:44;;;;;;;1.47;1.27;;;;;;;10.38;98.14;98991.50;4994505;28;20185;-86
2023/04/24 07:26:10;;;;;;;2.53;1.60;;;;;;;10.51;97.42;98997.72;4994978;28;20197;-86
2023/04/24 07:28:46;;;;;;;1.47;1.30;;;;;;;10.57;96.09;99010.03;4993717;28;20586;-86
2023/04/24 07:31:11;;;;;;;2.27;2.17;;;;;;;10.71;95.47;99015.91;4994879;28;20208;-86
2023/04/24 07:33:47;;;;;;;1.90;1.80;;;;;;;10.76;93.20;99006.66;4992292;28;20672;-86
2023/04/24 07:36:18;;;;;;;3.43;2.70;;;;;;;10.80;91.96;99012.19;4993046;28;20201;-86
2023/04/24 07:41:32;;;;;;;3.10;2.37;;;;;;;10.68;88.42;98999.38;4993980;28;20185;-86
2023/04/24 07:43:58;;;;;;;2.97;2.77;;;;;;;10.73;88.01;99004.63;4992866;28;20181;-86
2023/04/24 07:46:24;;;;;;;2.43;2.27;;;;;;;10.81;85.51;98991.94;4992800;28;20299;-86
2023/04/24 07:49:07;;;;;;;2.67;2.47;;;;;;;10.93;83.67;98998.13;4992927;28;20185;-87
2023/04/24 07:51:38;;;;;;;2.47;2.37;;;;;;;11.00;81.56;98986.63;4992417;28;20671;-86
2023/04/24 07:54:05;;;;;;;2.70;2.50;;;;;;;10.98;80.51;98989.69;4993975;28;20564;-87
2023/04/24 07:56:46;;;;;;;4.07;3.77;;;;;;;11.11;79.68;99001.34;4992840;28;20232;-87
2023/04/24 07:59:22;;;;;;;4.20;3.90;;;;;;;11.15;79.85;98996.00;4992507;28;20177;-87
2023/04/24 08:01:48;;;;;;;7.83;4.33;;;;;;;11.14;78.32;98994.38;4992685;28;20547;-86
2023/04/24 08:04:17;;;;;;;2.87;2.67;;;;;;;11.08;78.55;98999.31;4992362;28;20189;-86
2023/04/24 08:06:46;;;;;;;4.07;3.70;;;;;;;11.10;79.65;99002.50;4992650;28;20356;-86
2023/04/24 08:09:14;;;;;;;2.97;2.77;;;;;;;11.06;78.63;99007.06;4992396;28;20177;-86
2023/04/24 08:11:40;;;;;;;4.07;3.77;;;;;;;11.10;78.19;99012.63;4992689;28;20177;-88
2023/04/24 08:14:05;;;;;;;3.73;3.43;;;;;;;11.09;76.60;99005.56;4994477;28;20173;-87
2023/04/24 08:16:43;;;;;;;4.33;4.03;;;;;;;11.21;76.38;99022.72;4993502;28;20211;-87
2023/04/24 08:19:08;;;;;;;1.70;1.60;;;;;;;11.26;75.24;99007.97;4994360;28;20180;-87
2023/04/24 08:21:36;;;;;;;3.20;3.00;;;;;;;11.51;76.67;99027.75;4992920;28;20616;-87
2023/04/24 08:24:08;;;;;;;3.43;3.13;;;;;;;11.71;75.48;99026.69;4992033;28;20189;-87
2023/04/24 08:26:36;;;;;;;6.07;2.23;;;;;;;11.77;75.85;99019.03;4991851;28;20312;-88
2023/04/24 08:29:06;;;;;;;3.80;3.50;;;;;;;11.81;75.21;99017.19;4990379;28;20169;-87
2023/04/24 08:31:31;;;;;;;3.50;3.20;;;;;;;11.90;73.98;99004.13;4992230;28;20177;-87
2023/04/24 08:33:59;;;;;;;2.63;2.43;;;;;;;11.78;73.44;99007.72;4991793;28;20718;-88
2023/04/24 08:36:25;;;;;;;3.30;3.00;;;;;;;11.81;74.36;99012.53;4991629;28;20193;-86
2023/04/24 08:38:53;;;;;;;1.80;1.70;;;;;;;12.04;75.38;99029.09;4991201;28;20185;-86
2023/04/24 08:41:33;;;;;;;2.30;2.17;;;;;;;11.81;73.23;99004.31;4993823;28;20173;-86
2023/04/24 08:44:15;;;;;;;;;;;;;;;;;;;;;
2023/04/24 08:46:52;;;;;;;1.13;1.13;;;;;;;11.74;74.13;99011.53;4993011;28;20211;-86
2023/04/24 08:49:44;;;;;;;1.00;1.00;;;;;;;11.83;75.22;99017.63;4990571;28;20189;-87
2023/04/24 08:52:21;;;;;;;1.97;1.87;;;;;;;11.98;74.39;99016.03;4991584;28;20199;-86
2023/04/24 08:54:49;;;;;;;1.20;1.10;;;;;;;11.99;73.41;99003.94;4991196;28;20190;-86
2023/04/24 08:57:44;;;;;;;1.47;1.37;;;;;;;11.84;72.51;99006.34;4991437;28;20169;-86
2023/04/24 09:00:46;;;;;;;2.83;2.63;;;;;;;11.65;71.19;99005.44;4990541;28;20185;-86
2023/04/24 09:03:18;;;;;;;2.00;1.90;;;;;;;11.51;70.36;98997.69;4990660;28;20223;-85
2023/04/24 09:05:46;;;;;;;3.57;3.27;;;;;;;11.61;70.57;99019.03;5005520;23;20255;-85
2023/04/24 09:08:13;;;;;;;2.50;1.53;;;;;;;11.65;70.20;98998.03;4996594;28;20182;-84
2023/04/24 09:10:40;;;;;;;5.87;1.37;;;;;;;11.88;71.00;99015.44;4997707;28;20181;-86
2023/04/24 09:13:08;;;;;;;3.30;3.03;;;;;;;12.24;72.80;99034.63;4998869;28;20180;-81
2023/04/24 09:15:34;;;;;;;2.20;2.10;;;;;;;12.14;74.40;99035.97;4996288;28;20201;-83
2023/04/24 09:18:00;;;;;;;2.40;1.90;;;;;;;11.89;74.63;99019.75;4993636;28;20192;-84
2023/04/24 09:20:25;;;;;;;0.50;0.50;;;;;;;11.81;72.23;99020.72;4991423;28;20288;-85
2023/04/24 09:22:55;;;;;;;1.87;1.77;;;;;;;11.78;71.50;99018.69;4995523;28;20209;-85
2023/04/24 09:25:21;;;;;;;1.33;1.10;;;;;;;11.60;70.64;99017.47;4997800;28;20169;-84
2023/04/24 09:27:46;;;;;;;1.43;1.33;;;;;;;11.48;70.38;99014.81;4995491;28;20316;-84
2023/04/24 09:30:13;;;;;;;1.13;1.13;;;;;;;11.47;71.28;99026.88;4996150;28;20578;-84
2023/04/24 09:32:38;;;;;;;2.30;2.10;;;;;;;11.38;71.27;99032.50;4995596;28;20753;-84
2023/04/24 09:35:09;;;;;;;1.00;1.00;;;;;;;11.32;71.02;99032.00;4996861;28;20184;-84
2023/04/24 09:37:43;;;;;;;2.03;1.93;;;;;;;11.42;71.27;99030.66;4998923;28;20239;-87
2023/04/24 09:40:12;;;;;;;0.60;0.60;;;;;;;11.58;72.23;99031.50;4997137;28;20177;-84
2023/04/24 09:42:37;;;;;;;3.33;1.37;;;;;;;11.80;70.90;99029.28;4994115;28;20201;-84
2023/04/24 09:45:03;;;;;;;0.90;0.83;;;;;;;11.80;69.57;99029.28;4995756;28;20185;-84
2023/04/24 09:47:36;;;;;;;1.30;1.17;;;;;;;11.85;68.61;99029.81;4995939;28;20198;-83
2023/04/24 09:50:12;;;;;;;1.20;1.17;;;;;;;11.90;67.85;99029.56;4993697;28;20193;-84
2023/04/24 09:52:46;;;;;;;1.03;1.03;;;;;;;11.90;67.89;99026.03;4992653;28;20173;-83
2023/04/24 09:55:16;;;;;;;1.07;1.00;;;;;;;11.75;67.23;99030.34;4993181;28;20243;-83
2023/04/24 09:58:07;;;;;;;0.93;0.93;;;;;;;11.74;68.38;99019.75;4993703;28;20209;-83
2023/04/24 10:00:33;;;;;;;0.80;0.80;;;;;;;11.78;69.02;99031.56;4992157;28;20570;-83
2023/04/24 10:02:59;;;;;;;0.83;0.80;;;;;;;11.70;67.83;99022.38;4996670;28;20295;-84
2023/04/24 10:05:29;;;;;;;0.70;0.50;;;;;;;11.64;68.40;99034.75;4997361;28;20240;-83
2023/04/24 10:08:00;;;;;;;1.00;1.00;;;;;;;11.59;68.26;99024.06;4997698;28;20190;-83
2023/04/24 10:10:26;;;;;;;0.60;0.60;;;;;;;11.52;68.37;99021.94;4997144;28;20664;-85
2023/04/24 10:12:52;;;;;;;0.60;0.60;;;;;;;11.46;68.89;99033.50;4997247;28;20181;-83
2023/04/24 10:15:21;;;;;;;0.70;0.70;;;;;;;11.40;68.48;99022.00;4997038;28;20553;-84
2023/04/24 10:17:51;;;;;;;1.07;0.93;;;;;;;11.32;68.59;99031.19;4996887;28;20251;-84
2023/04/24 10:20:18;;;;;;;0.23;0.23;;;;;;;11.22;69.65;99024.28;4996831;28;20188;-84
2023/04/24 10:22:49;;;;;;;0.40;0.40;;;;;;;11.26;70.26;99030.63;4996673;28;20204;-84
2023/04/24 10:25:16;;;;;;;0.87;0.80;;;;;;;11.26;70.44;99035.31;4994488;28;20192;-84
2023/04/24 10:27:41;;;;;;;0.20;0.20;;;;;;;11.32;70.76;99036.66;4996147;28;20225;-84
2023/04/24 10:30:07;;;;;;;1.00;1.00;;;;;;;11.36;70.83;99043.00;4997077;28;20210;-84
2023/04/24 10:32:33;;;;;;;1.00;1.00;;;;;;;11.35;70.33;99040.63;4995788;28;20181;-84
2023/04/24 10:34:58;;;;;;;2.10;1.23;;;;;;;11.40;70.63;99040.38;4996208;28;20634;-84
2023/04/24 10:37:25;;;;;;;1.23;1.13;;;;;;;11.39;70.74;99036.84;4996090;28;20212;-84
2023/04/24 10:39:54;;;;;;;0.97;0.97;;;;;;;11.40;70.34;99041.16;4995366;28;20189;-85
2023/04/24 10:42:19;;;;;;;0.30;0.30;;;;;;;11.47;71.29;99048.78;4995970;28;20280;-85
2023/04/24 10:44:48;;;;;;;0.00;0.00;;;;;;;11.67;70.71;99038.72;4999932;28;20224;-84
2023/04/24 10:47:14;;;;;;;0.77;0.77;;;;;;;11.87;70.71;99034.97;4989236;28;20205;-84
2023/04/24 10:49:40;;;;;;;3.43;1.03;;;;;;;12.13;70.45;99042.59;4997463;28;20221;-85
2023/04/24 10:52:05;;;;;;;0.60;0.60;;;;;;;12.14;68.46;99020.31;4996924;28;20213;-84
2023/04/24 10:54:40;;;;;;;0.80;0.80;;;;;;;11.96;68.80;99021.88;4997585;28;20710;-85
2023/04/24 10:57:17;;;;;;;0.40;0.40;;;;;;;11.85;69.78;99013.41;4997946;28;20204;-84
2023/04/24 10:59:44;;;;;;;1.53;1.43;;;;;;;11.80;69.56;99035.56;4997317;28;20185;-84
2023/04/24 11:02:09;;;;;;;1.60;1.40;;;;;;;11.61;69.29;99028.03;4996504;28;20213;-84
2023/04/24 11:04:35;;;;;;;0.93;0.90;;;;;;;11.48;69.96;99048.41;4996959;28;20572;-84
2023/04/24 11:07:02;;;;;;;0.90;0.90;;;;;;;11.39;71.51;99049.72;4998662;28;20212;-85
2023/04/24 11:09:31;;;;;;;12.40;1.10;;;;;;;11.32;72.75;99067.53;4996286;28;20189;-85
2023/04/24 11:12:26;;;;;;;7.03;1.07;;;;;;;11.45;72.50;99060.06;4998242;28;20512;-85
2023/04/24 11:15:00;;;;;;;0.60;0.60;;;;;;;11.80;71.47;99053.94;4994441;28;20199;-84
2023/04/24 11:17:33;;;;;;;0.60;0.60;;;;;;;11.93;69.81;99033.53;4996953;28;20201;-84
2023/04/24 11:20:06;;;;;;;0.57;0.57;;;;;;;12.18;69.73;99032.16;4997597;28;20193;-85
2023/04/24 11:22:35;;;;;;;0.30;0.30;;;;;;;12.54;68.75;99023.94;4995560;28;20263;-84
2023/04/24 11:25:04;;;;;;;0.53;0.20;;;;;;;12.61;68.15;99013.13;4996390;28;20264;-84
2023/04/24 11:27:32;;;;;;;0.60;0.60;;;;;;;12.65;68.78;99006.56;4996457;28;20201;-84
2023/04/24 11:29:57;;;;;;;2.90;0.70;;;;;;;12.49;66.97;99003.88;4994698;28;20212;-85
2023/04/24 11:32:42;;;;;;;0.60;0.60;;;;;;;12.45;68.34;99010.47;4996661;28;20727;-85
2023/04/24 11:35:19;;;;;;;0.10;0.10;;;;;;;12.30;68.24;99025.00;4996993;28;20188;-84
2023/04/24 11:37:46;;;;;;;0.77;0.70;;;;;;;12.08;67.96;99019.03;4997133;28;20181;-84